createdAt,value
2019-04-01T00:00:48.176Z,58.93
2019-04-01T00:03:17.705Z,59.15
2019-04-01T00:05:47.620Z,59.23
2019-04-01T00:08:17.089Z,59.16
2019-04-01T00:10:46.447Z,59.87
2019-04-01T00:13:15.910Z,59.53
2019-04-01T00:15:45.393Z,59.37
2019-04-01T00:18:14.856Z,59.89
2019-04-01T00:20:44.296Z,59.90
2019-04-01T00:23:13.171Z,60.37
2019-04-01T00:25:42.676Z,60.97
2019-04-01T00:28:11.511Z,61.08
2019-04-01T00:30:40.355Z,60.55
2019-04-01T00:33:09.174Z,60.56
2019-04-01T00:35:38.112Z,60.20
2019-04-01T00:38:06.971Z,60.17
2019-04-01T00:40:35.887Z,60.68
2019-04-01T00:43:12.577Z,60.72
2019-04-01T00:45:42.958Z,61.01
2019-04-01T00:48:12.536Z,61.44
2019-04-01T00:50:41.356Z,61.31
2019-04-01T00:53:10.794Z,61.50
2019-04-01T00:55:39.635Z,61.58
2019-04-01T00:58:08.473Z,61.15
2019-04-01T01:00:37.400Z,61.28
2019-04-01T01:03:06.276Z,61.55
2019-04-01T01:05:35.138Z,62.19
2019-04-01T01:08:04.015Z,61.96
2019-04-01T01:10:32.873Z,62.18
2019-04-01T01:13:01.812Z,61.95
2019-04-01T01:15:30.625Z,62.16
2019-04-01T01:17:59.460Z,61.68
2019-04-01T01:20:28.331Z,62.17
2019-04-01T01:22:57.129Z,62.42
2019-04-01T01:25:25.976Z,61.79
2019-04-01T01:27:55.613Z,61.83
2019-04-01T01:30:24.427Z,62.23
2019-04-01T01:32:53.310Z,62.38
2019-04-01T01:35:22.173Z,61.64
2019-04-01T01:37:50.971Z,61.59
2019-04-01T01:40:19.796Z,61.32
2019-04-01T01:42:48.644Z,60.70
2019-04-01T01:45:17.646Z,60.33
2019-04-01T01:47:46.496Z,61.04
2019-04-01T01:50:15.324Z,60.90
2019-04-01T01:52:44.231Z,60.98
2019-04-01T01:55:13.076Z,61.51
2019-04-01T01:57:41.850Z,61.26
2019-04-01T02:00:12.187Z,61.91
2019-04-01T02:02:41.029Z,61.80
2019-04-01T02:05:09.899Z,61.75
2019-04-01T02:07:38.766Z,61.86
2019-04-01T02:10:07.605Z,62.37
2019-04-01T02:12:36.407Z,62.94
2019-04-01T02:15:07.183Z,62.88
2019-04-01T02:17:36.034Z,62.72
2019-04-01T02:20:05.724Z,62.04
2019-04-01T02:22:34.565Z,62.47
2019-04-01T02:25:03.522Z,62.93
2019-04-01T02:27:32.426Z,62.94
2019-04-01T02:30:01.283Z,63.21
2019-04-01T02:32:30.114Z,62.83
2019-04-01T02:34:59.016Z,62.52
2019-04-01T02:37:28.004Z,62.44
2019-04-01T02:39:56.877Z,62.98
2019-04-01T02:42:25.690Z,63.71
2019-04-01T02:44:54.552Z,64.05
2019-04-01T02:47:23.434Z,63.54
2019-04-01T02:49:52.195Z,63.84
2019-04-01T02:52:21.049Z,64.06
2019-04-01T02:54:49.867Z,63.88
2019-04-01T02:57:18.633Z,64.28
2019-04-01T02:59:47.482Z,64.36
2019-04-01T03:02:16.331Z,64.21
2019-04-01T03:04:45.190Z,63.96
2019-04-01T03:07:14.059Z,64.05
2019-04-01T03:09:42.936Z,63.99
2019-04-01T03:12:11.785Z,64.17
2019-04-01T03:14:40.647Z,64.09
2019-04-01T03:17:09.489Z,64.50
2019-04-01T03:19:38.352Z,64.51
2019-04-01T03:22:07.214Z,64.35
2019-04-01T03:24:36.106Z,64.54
2019-04-01T03:27:04.945Z,64.27
2019-04-01T03:29:33.789Z,64.23
2019-04-01T03:32:02.631Z,64.01
2019-04-01T03:34:31.512Z,64.14
2019-04-01T03:37:00.278Z,64.71
2019-04-01T03:39:29.047Z,64.56
2019-04-01T03:41:57.888Z,65.00
2019-04-01T03:44:26.715Z,65.12
2019-04-01T03:46:55.607Z,65.31
2019-04-01T03:49:24.524Z,65.37
2019-04-01T03:51:53.345Z,65.54
2019-04-01T03:54:22.163Z,65.51
2019-04-01T03:56:51.035Z,64.46
2019-04-01T03:59:19.875Z,64.61
2019-04-01T04:01:48.694Z,64.87
2019-04-01T04:04:17.520Z,64.82
2019-04-01T04:06:46.420Z,64.99
2019-04-01T04:09:15.265Z,65.00
2019-04-01T04:11:44.117Z,64.84
2019-04-01T04:14:12.997Z,64.72
2019-04-01T04:16:41.815Z,65.19
2019-04-01T04:19:10.573Z,64.84
2019-04-01T04:21:39.409Z,64.98
2019-04-01T04:24:08.173Z,65.30
2019-04-01T04:26:37.052Z,64.87
2019-04-01T04:29:06.192Z,63.76
2019-04-01T04:31:35.032Z,62.52
2019-04-01T04:34:03.926Z,62.39
2019-04-01T04:36:32.710Z,62.27
2019-04-01T04:39:02.140Z,62.18
2019-04-01T04:41:30.935Z,61.88
2019-04-01T04:43:59.782Z,61.35
2019-04-01T04:46:29.234Z,60.86
2019-04-01T04:48:58.085Z,60.70
2019-04-01T04:51:26.933Z,60.97
2019-04-01T04:53:55.806Z,61.14
2019-04-01T04:56:24.639Z,60.98
2019-04-01T04:58:53.481Z,60.52
2019-04-01T05:01:22.325Z,60.47
2019-04-01T05:03:51.163Z,59.73
2019-04-01T05:06:20.067Z,59.79
2019-04-01T05:08:49.477Z,59.48
2019-04-01T05:11:18.906Z,58.91
2019-04-01T05:13:48.373Z,58.47
2019-04-01T05:16:17.755Z,57.30
2019-04-01T05:18:47.198Z,56.74
2019-04-01T05:21:19.022Z,56.03
2019-04-01T05:23:48.871Z,55.60
2019-04-01T05:26:20.066Z,55.20
2019-04-01T05:28:49.992Z,55.18
2019-04-01T05:31:21.867Z,54.20
2019-04-01T05:33:55.485Z,54.20
2019-04-01T05:36:25.857Z,53.48
2019-04-01T05:38:55.311Z,52.69
2019-04-01T05:41:24.684Z,52.46
2019-04-01T05:43:54.526Z,53.58
2019-04-01T05:46:24.004Z,51.57
2019-04-01T05:48:53.658Z,50.66
2019-04-01T05:51:23.032Z,51.67
2019-04-01T05:53:52.419Z,51.44
2019-04-01T05:56:21.849Z,50.42
2019-04-01T05:58:51.286Z,50.96
2019-04-01T06:01:22.319Z,51.07
2019-04-01T06:03:51.721Z,50.56
2019-04-01T06:06:21.273Z,50.11
2019-04-01T06:08:50.727Z,50.38
2019-04-01T06:11:20.129Z,50.29
2019-04-01T06:13:49.621Z,49.32
2019-04-01T06:16:19.162Z,48.86
2019-04-01T06:18:48.665Z,47.40
2019-04-01T06:21:18.172Z,46.83
2019-04-01T06:23:47.489Z,45.03
2019-04-01T06:26:16.944Z,44.85
2019-04-01T06:28:46.378Z,45.90
2019-04-01T06:31:22.283Z,45.42
2019-04-01T06:33:52.455Z,44.55
2019-04-01T06:36:31.985Z,45.52
2019-04-01T06:39:01.371Z,43.55
2019-04-01T06:41:32.250Z,43.32
2019-04-01T06:44:01.607Z,43.28
2019-04-01T06:46:31.247Z,43.37
2019-04-01T06:49:00.716Z,43.20
2019-04-01T06:51:30.153Z,43.60
2019-04-01T06:53:59.601Z,42.74
2019-04-01T06:56:29.030Z,42.20
2019-04-01T06:58:58.429Z,41.39
2019-04-01T07:01:28.150Z,41.30
2019-04-01T07:03:57.580Z,40.95
2019-04-01T07:06:26.943Z,40.37
2019-04-01T07:08:56.300Z,40.13
2019-04-01T07:11:25.875Z,39.80
2019-04-01T07:13:56.303Z,40.51
2019-04-01T07:16:25.730Z,40.78
2019-04-01T07:18:55.178Z,40.93
2019-04-01T07:21:32.160Z,40.56
2019-04-01T07:24:01.594Z,40.22
2019-04-01T07:26:31.271Z,40.01
2019-04-01T07:29:00.750Z,39.55
2019-04-01T07:31:30.280Z,39.35
2019-04-01T07:33:59.696Z,38.31
2019-04-01T07:36:29.185Z,38.60
2019-04-01T07:38:58.542Z,37.88
2019-04-01T07:41:28.030Z,37.59
2019-04-01T07:43:57.595Z,37.55
2019-04-01T07:46:27.045Z,36.65
2019-04-01T07:48:56.504Z,37.53
2019-04-01T07:51:26.114Z,35.11
2019-04-01T07:53:55.677Z,36.40
2019-04-01T07:56:25.159Z,36.23
2019-04-01T07:58:54.854Z,34.93
2019-04-01T08:01:24.289Z,34.56
2019-04-01T08:03:53.756Z,34.10
2019-04-01T08:06:23.211Z,33.08
2019-04-01T08:08:52.649Z,33.07
2019-04-01T08:11:22.106Z,34.17
2019-04-01T08:13:51.538Z,34.52
2019-04-01T08:16:20.989Z,34.32
2019-04-01T08:18:50.555Z,34.60
2019-04-01T08:21:19.947Z,33.57
2019-04-01T08:23:49.951Z,33.20
2019-04-01T08:26:19.493Z,33.14
2019-04-01T08:28:49.018Z,33.04
2019-04-01T08:31:18.866Z,33.60
2019-04-01T08:33:50.269Z,32.61
2019-04-01T08:36:19.937Z,32.88
2019-04-01T08:38:49.473Z,32.48
2019-04-01T08:41:18.855Z,31.70
2019-04-01T08:43:48.323Z,31.06
2019-04-01T08:46:17.736Z,31.81
2019-04-01T08:48:47.230Z,30.91
2019-04-01T08:51:16.670Z,30.51
2019-04-01T08:53:46.094Z,30.21
2019-04-01T08:56:15.476Z,32.70
2019-04-01T08:58:45.017Z,30.77
2019-04-01T09:01:14.437Z,28.39
2019-04-01T09:03:43.859Z,28.39
2019-04-01T09:06:13.444Z,27.90
2019-04-01T09:08:44.133Z,27.43
2019-04-01T09:11:13.705Z,27.06
2019-04-01T09:13:43.599Z,25.71
2019-04-01T09:16:13.062Z,26.46
2019-04-01T09:18:42.498Z,26.81
2019-04-01T09:21:11.848Z,26.81
2019-04-01T09:23:41.208Z,24.69
2019-04-01T09:26:10.613Z,25.17
2019-04-01T09:28:39.974Z,22.86
2019-04-01T09:31:09.401Z,22.86
2019-04-01T09:33:38.840Z,24.20
2019-04-01T09:36:08.213Z,22.86
2019-04-01T09:38:37.713Z,23.25
2019-04-01T09:41:07.203Z,23.25
2019-04-01T09:43:41.720Z,22.36
2019-04-01T09:46:11.162Z,22.38
2019-04-01T09:48:40.622Z,23.42
2019-04-01T09:51:10.071Z,22.06
2019-04-01T09:53:39.502Z,22.68
2019-04-01T09:56:08.932Z,22.25
2019-04-01T09:58:38.369Z,20.93
2019-04-01T10:01:07.813Z,20.93
2019-04-01T10:03:37.297Z,21.69
2019-04-01T10:06:10.204Z,20.53
2019-04-01T10:08:42.536Z,20.53
2019-04-01T10:11:08.511Z,20.50
2019-04-01T10:13:38.122Z,19.77
2019-04-01T10:16:07.163Z,19.32
2019-04-01T10:18:36.303Z,19.37
2019-04-01T10:21:05.453Z,19.74
2019-04-01T10:23:34.896Z,18.77
2019-04-01T10:26:04.075Z,19.42
2019-04-01T10:28:33.169Z,20.47
2019-04-01T10:31:03.830Z,20.47
2019-04-01T10:33:33.088Z,19.14
2019-04-01T10:36:02.212Z,19.91
2019-04-01T10:38:31.694Z,18.86
2019-04-01T10:41:00.897Z,18.42
2019-04-01T10:43:30.025Z,18.76
2019-04-01T10:45:59.251Z,18.59
2019-04-01T10:48:28.394Z,17.89
2019-04-01T10:50:57.565Z,17.91
2019-04-01T10:53:26.675Z,17.89
2019-04-01T10:55:55.845Z,18.45
2019-04-01T10:58:25.014Z,18.78
2019-04-01T11:00:54.256Z,18.12
2019-04-01T11:03:23.346Z,19.31
2019-04-01T11:05:52.583Z,19.58
2019-04-01T11:08:22.079Z,19.77
2019-04-01T11:10:51.198Z,19.64
2019-04-01T11:13:21.904Z,18.13
2019-04-01T11:15:51.363Z,18.09
2019-04-01T11:18:20.683Z,18.46
2019-04-01T11:20:50.012Z,18.46
2019-04-01T11:23:19.176Z,18.22
2019-04-01T11:25:48.319Z,18.61
2019-04-01T11:28:17.483Z,18.26
2019-04-01T11:30:46.608Z,18.90
2019-04-01T11:33:15.767Z,18.95
2019-04-01T11:35:45.909Z,18.42
2019-04-01T11:38:15.258Z,17.94
2019-04-01T11:40:44.389Z,19.02
2019-04-01T11:43:13.474Z,19.49
2019-04-01T11:45:42.787Z,19.06
2019-04-01T11:48:11.951Z,19.31
2019-04-01T11:50:41.103Z,19.01
2019-04-01T11:53:10.208Z,17.41
2019-04-01T11:55:39.282Z,18.05
2019-04-01T11:58:09.268Z,17.37
2019-04-01T12:00:38.520Z,18.36
2019-04-01T12:03:07.662Z,18.71
2019-04-01T12:05:37.185Z,18.04
2019-04-01T12:08:06.307Z,17.79
2019-04-01T12:10:35.441Z,18.02
2019-04-01T12:13:04.577Z,17.88
2019-04-01T12:15:33.681Z,17.54
2019-04-01T12:18:02.833Z,17.99
2019-04-01T12:20:31.929Z,18.62
2019-04-01T12:23:01.076Z,18.91
2019-04-01T12:25:30.233Z,18.25
2019-04-01T12:27:59.275Z,17.68
2019-04-01T12:30:28.469Z,18.37
2019-04-01T12:32:57.629Z,18.80
2019-04-01T12:35:26.745Z,18.07
2019-04-01T12:37:55.975Z,18.70
2019-04-01T12:40:25.347Z,17.49
2019-04-01T12:42:54.654Z,17.63
2019-04-01T12:45:24.357Z,18.01
2019-04-01T12:47:53.488Z,17.94
2019-04-01T12:50:22.717Z,17.83
2019-04-01T12:52:51.935Z,17.77
2019-04-01T12:55:21.128Z,17.10
2019-04-01T12:57:51.010Z,17.55
2019-04-01T13:00:22.250Z,18.39
2019-04-01T13:02:51.626Z,18.18
2019-04-01T13:05:20.670Z,18.05
2019-04-01T13:07:50.033Z,17.90
2019-04-01T13:10:21.042Z,17.73
2019-04-01T13:12:51.140Z,18.39
2019-04-01T13:15:20.951Z,18.08
2019-04-01T13:17:50.321Z,17.27
2019-04-01T13:20:19.667Z,17.50
2019-04-01T13:22:48.810Z,17.82
2019-04-01T13:25:17.888Z,17.46
2019-04-01T13:27:46.968Z,17.70
2019-04-01T13:30:16.254Z,18.49
2019-04-01T13:32:45.436Z,18.37
2019-04-01T13:35:14.578Z,17.71
2019-04-01T13:37:43.729Z,17.50
2019-04-01T13:40:13.595Z,18.00
2019-04-01T13:42:44.559Z,18.83
2019-04-01T13:45:14.026Z,19.07
2019-04-01T13:47:43.126Z,18.25
2019-04-01T13:50:16.075Z,18.31
2019-04-01T13:52:43.459Z,17.75
2019-04-01T13:55:12.583Z,18.83
2019-04-01T13:57:42.020Z,18.54
2019-04-01T14:00:11.935Z,18.54
2019-04-01T14:02:41.158Z,18.63
2019-04-01T14:05:10.585Z,18.52
2019-04-01T14:07:39.792Z,18.52
2019-04-01T14:10:09.137Z,17.79
2019-04-01T14:12:38.362Z,17.41
2019-04-01T14:15:08.705Z,17.41
2019-04-01T14:17:37.955Z,18.38
2019-04-01T14:20:07.207Z,17.89
2019-04-01T14:22:36.529Z,18.16
2019-04-01T14:25:07.708Z,18.12
2019-04-01T14:27:39.339Z,17.61
2019-04-01T14:30:09.552Z,17.61
2019-04-01T14:32:38.726Z,18.49
2019-04-01T14:35:08.168Z,18.48
2019-04-01T14:37:37.344Z,18.12
2019-04-01T14:40:08.794Z,18.41
2019-04-01T14:42:39.637Z,18.41
2019-04-01T14:45:09.455Z,19.04
2019-04-01T14:47:55.650Z,18.83
2019-04-01T14:50:09.806Z,18.45
2019-04-01T14:52:38.993Z,18.45
2019-04-01T14:55:08.194Z,18.93
2019-04-01T14:57:37.628Z,18.50
2019-04-01T15:00:10.111Z,19.74
2019-04-01T15:02:39.569Z,19.42
2019-04-01T15:05:09.330Z,19.42
2019-04-01T15:07:38.681Z,18.88
2019-04-01T15:10:08.318Z,19.35
2019-04-01T15:12:37.767Z,19.35
2019-04-01T15:15:08.971Z,19.90
2019-04-01T15:17:38.408Z,19.90
2019-04-01T15:20:09.046Z,20.08
2019-04-01T15:22:38.680Z,20.85
2019-04-01T15:25:08.363Z,20.53
2019-04-01T15:27:37.771Z,20.67
2019-04-01T15:30:09.014Z,19.87
2019-04-01T15:32:38.453Z,19.87
2019-04-01T15:35:08.638Z,19.65
2019-04-01T15:37:38.297Z,20.08
2019-04-01T15:40:08.395Z,20.08
2019-04-01T15:42:37.817Z,20.41
2019-04-01T15:45:07.298Z,20.53
2019-04-01T15:47:38.265Z,20.41
2019-04-01T15:50:09.395Z,20.70
2019-04-01T15:52:39.113Z,21.02
2019-04-01T15:55:08.554Z,21.38
2019-04-01T15:57:38.075Z,22.28
2019-04-01T16:00:07.914Z,22.90
2019-04-01T16:02:37.389Z,23.65
2019-04-01T16:05:08.805Z,23.89
2019-04-01T16:07:41.572Z,24.18
2019-04-01T16:10:09.498Z,25.00
2019-04-01T16:12:38.932Z,25.00
2019-04-01T16:15:09.208Z,25.17
2019-04-01T16:17:39.067Z,25.21
2019-04-01T16:20:08.607Z,25.59
2019-04-01T16:22:38.227Z,25.91
2019-04-01T16:25:08.641Z,26.33
2019-04-01T16:27:38.175Z,26.69
2019-04-01T16:30:09.872Z,26.89
2019-04-01T16:32:39.322Z,27.35
2019-04-01T16:35:08.936Z,27.66
2019-04-01T16:37:38.383Z,27.98
2019-04-01T16:40:07.944Z,28.42
2019-04-01T16:42:37.309Z,29.03
2019-04-01T16:45:08.644Z,29.12
2019-04-01T16:47:38.112Z,29.56
2019-04-01T16:50:08.503Z,30.02
2019-04-01T16:52:38.653Z,30.16
2019-04-01T16:55:08.877Z,30.59
2019-04-01T16:57:38.372Z,30.84
2019-04-01T17:00:09.523Z,31.08
2019-04-01T17:02:39.065Z,30.89
2019-04-01T17:05:08.980Z,31.43
2019-04-01T17:07:38.858Z,31.49
2019-04-01T17:10:08.860Z,31.95
2019-04-01T17:12:38.327Z,32.25
2019-04-01T17:15:08.387Z,32.10
2019-04-01T17:17:37.797Z,32.18
2019-04-01T17:20:07.592Z,32.63
2019-04-01T17:22:37.167Z,32.73
2019-04-01T17:25:07.976Z,33.20
2019-04-01T17:27:37.470Z,33.49
2019-04-01T17:30:12.049Z,33.47
2019-04-01T17:32:41.447Z,33.70
2019-04-01T17:35:10.905Z,33.95
2019-04-01T17:37:40.410Z,34.37
2019-04-01T17:40:10.206Z,34.28
2019-04-01T17:42:39.791Z,34.55
2019-04-01T17:45:23.936Z,34.91
2019-04-01T17:47:53.364Z,35.15
2019-04-01T17:50:22.975Z,35.21
2019-04-01T17:52:53.791Z,35.29
2019-04-01T17:55:23.517Z,35.61
2019-04-01T17:57:52.975Z,35.77
2019-04-01T18:00:24.852Z,35.64
2019-04-01T18:02:54.424Z,35.91
2019-04-01T18:05:24.271Z,36.00
2019-04-01T18:07:53.714Z,35.60
2019-04-01T18:10:23.349Z,35.54
2019-04-01T18:12:52.993Z,35.70
2019-04-01T18:15:22.697Z,35.84
2019-04-01T18:17:52.238Z,36.54
2019-04-01T18:20:21.707Z,36.51
2019-04-01T18:22:51.154Z,36.39
2019-04-01T18:25:21.190Z,36.50
2019-04-01T18:27:51.035Z,36.28
2019-04-01T18:30:20.787Z,36.48
2019-04-01T18:32:53.518Z,36.89
2019-04-01T18:35:21.845Z,36.92
2019-04-01T18:37:51.343Z,37.16
2019-04-01T18:40:31.889Z,37.33
2019-04-01T18:42:52.122Z,37.58
2019-04-01T18:45:22.359Z,37.30
2019-04-01T18:47:53.160Z,37.51
2019-04-01T18:50:22.930Z,38.29
2019-04-01T18:52:52.406Z,38.08
2019-04-01T18:55:21.873Z,37.49
2019-04-01T18:57:51.372Z,37.72
2019-04-01T19:00:21.096Z,37.32
2019-04-01T19:02:50.593Z,37.05
2019-04-01T19:05:20.121Z,37.35
2019-04-01T19:07:49.594Z,37.04
2019-04-01T19:10:19.365Z,36.97
2019-04-01T19:12:48.804Z,37.02
2019-04-01T19:15:20.172Z,37.20
2019-04-01T19:17:49.617Z,37.48
2019-04-01T19:20:19.120Z,37.39
2019-04-01T19:22:49.712Z,37.28
2019-04-01T19:25:19.257Z,37.93
2019-04-01T19:27:49.225Z,37.56
2019-04-01T19:30:19.759Z,37.93
2019-04-01T19:32:49.202Z,38.02
2019-04-01T19:35:18.705Z,38.59
2019-04-01T19:37:48.225Z,38.15
2019-04-01T19:40:20.578Z,38.55
2019-04-01T19:42:49.690Z,38.33
2019-04-01T19:45:19.149Z,38.45
2019-04-01T19:47:48.586Z,38.94
2019-04-01T19:50:19.438Z,39.81
2019-04-01T19:52:48.935Z,39.39
2019-04-01T19:55:18.419Z,39.45
2019-04-01T19:57:47.993Z,39.92
2019-04-01T20:00:27.582Z,40.23
2019-04-01T20:02:51.008Z,40.33
2019-04-01T20:05:21.873Z,40.81
2019-04-01T20:07:51.453Z,41.20
2019-04-01T20:10:21.062Z,41.13
2019-04-01T20:12:50.891Z,41.51
2019-04-01T20:15:21.588Z,41.92
2019-04-01T20:17:51.115Z,42.53
2019-04-01T20:20:20.703Z,42.97
2019-04-01T20:22:50.137Z,43.08
2019-04-01T20:25:19.628Z,42.92
2019-04-01T20:27:49.059Z,43.10
2019-04-01T20:30:18.790Z,43.77
2019-04-01T20:32:49.013Z,43.65
2019-04-01T20:35:23.745Z,43.49
2019-04-01T20:37:49.967Z,43.41
2019-04-01T20:40:19.730Z,43.02
2019-04-01T20:42:49.500Z,43.08
2019-04-01T20:45:18.913Z,42.97
2019-04-01T20:47:50.331Z,42.96
2019-04-01T20:50:19.959Z,42.95
2019-04-01T20:52:50.581Z,43.29
2019-04-01T20:55:20.346Z,43.13
2019-04-01T20:57:49.818Z,43.38
2019-04-01T21:00:20.175Z,43.72
2019-04-01T21:02:49.621Z,43.75
2019-04-01T21:05:19.026Z,44.05
2019-04-01T21:07:48.633Z,44.06
2019-04-01T21:10:18.416Z,43.99
2019-04-01T21:12:47.919Z,44.47
2019-04-01T21:15:18.256Z,44.95
2019-04-01T21:17:47.830Z,45.63
2019-04-01T21:20:17.456Z,45.29
2019-04-01T21:22:46.856Z,45.32
2019-04-01T21:25:16.294Z,45.26
2019-04-01T21:27:45.793Z,45.16
2019-04-01T21:30:15.743Z,45.32
2019-04-01T21:32:45.384Z,45.64
2019-04-01T21:35:15.235Z,45.70
2019-04-01T21:37:44.732Z,45.39
2019-04-01T21:40:14.511Z,45.52
2019-04-01T21:42:43.862Z,45.34
2019-04-01T21:45:13.704Z,45.60
2019-04-01T21:47:43.151Z,46.18
2019-04-01T21:50:12.931Z,45.69
2019-04-01T21:52:42.408Z,45.96
2019-04-01T21:55:11.920Z,45.91
2019-04-01T21:57:41.370Z,46.33
2019-04-01T22:00:17.809Z,47.01
2019-04-01T22:02:46.502Z,47.08
2019-04-01T22:05:16.280Z,47.02
2019-04-01T22:07:45.797Z,47.50
2019-04-01T22:10:15.354Z,47.61
2019-04-01T22:12:44.968Z,47.80
2019-04-01T22:15:14.410Z,48.17
2019-04-01T22:17:43.787Z,47.96
2019-04-01T22:20:13.295Z,48.39
2019-04-01T22:22:42.721Z,48.30
2019-04-01T22:25:12.226Z,47.93
2019-04-01T22:27:41.623Z,48.59
2019-04-01T22:30:11.744Z,48.32
2019-04-01T22:32:42.098Z,48.85
2019-04-01T22:35:11.679Z,49.41
2019-04-01T22:37:41.102Z,49.45
2019-04-01T22:40:10.673Z,49.41
2019-04-01T22:42:40.112Z,49.90
2019-04-01T22:45:09.884Z,49.48
2019-04-01T22:47:39.330Z,50.16
2019-04-01T22:50:10.143Z,50.94
2019-04-01T22:52:42.059Z,50.34
2019-04-01T22:55:11.189Z,50.22
2019-04-01T22:57:40.652Z,51.30
2019-04-01T23:00:11.147Z,50.97
2019-04-01T23:02:42.232Z,50.99
2019-04-01T23:05:11.815Z,51.81
2019-04-01T23:07:41.269Z,51.89
2019-04-01T23:10:10.779Z,51.48
2019-04-01T23:12:40.271Z,51.59
2019-04-01T23:15:09.922Z,51.50
2019-04-01T23:17:39.369Z,51.79
2019-04-01T23:20:09.022Z,51.48
2019-04-01T23:22:38.477Z,52.16
2019-04-01T23:25:07.965Z,52.19
2019-04-01T23:27:37.367Z,52.09
2019-04-01T23:30:09.468Z,52.30
2019-04-01T23:32:41.650Z,53.03
2019-04-01T23:35:09.998Z,53.18
2019-04-01T23:37:39.465Z,52.76
2019-04-01T23:40:09.311Z,52.54
2019-04-01T23:42:38.833Z,52.71
2019-04-01T23:45:08.890Z,52.83
2019-04-01T23:47:38.432Z,53.05
2019-04-01T23:50:09.643Z,52.99
2019-04-01T23:52:39.325Z,53.10
2019-04-01T23:55:08.766Z,53.39
2019-04-01T23:57:38.279Z,53.66
